Terminal Aerodrome Forecast
Issued by NWS

Home | Current Version | Previous Version | Text Only | Print | Product List | Glossary On
Versions: 1 2 3 4 5 6 7 8 9 10 11 12 13 14 15 16 17 18 19 20 21 22 23 24 25 26 27
000
FTUS41 KGYX 210521
TAFRKD
TAF
KRKD 210521Z 2106/2206 VRB03KT P6SM OVC100
     FM211100 04005KT P6SM OVC050
     FM211800 08012KT 4SM -RA OVC025
     FM212300 08008G18KT 2SM -RA BR OVC007
      AMD LTD TO CLD VIS AND WIND=

USA.gov is the U.S. government's official web portal to all federal, state and local government web resources and services.